sensor_id;sensor_type;location;lat;lon;timestamp;P1;durP1;ratioP1;P2;durP2;ratioP2
21472;SDS011;10898;48.072;11.682;2023-01-19T00:01:41;14.57;;;11.35;;
21472;SDS011;10898;48.072;11.682;2023-01-19T00:03:43;15.98;;;10.82;;
21472;SDS011;10898;48.072;11.682;2023-01-19T00:07:48;14.25;;;9.98;;
21472;SDS011;10898;48.072;11.682;2023-01-19T00:09:50;15.57;;;10.13;;
21472;SDS011;10898;48.072;11.682;2023-01-19T00:11:52;15.35;;;10.95;;
21472;SDS011;10898;48.072;11.682;2023-01-19T00:13:55;19.95;;;12.15;;
21472;SDS011;10898;48.072;11.682;2023-01-19T00:15:58;18.48;;;12.02;;
21472;SDS011;10898;48.072;11.682;2023-01-19T00:18:01;19.10;;;11.82;;
21472;SDS011;10898;48.072;11.682;2023-01-19T00:20:03;15.18;;;10.90;;
21472;SDS011;10898;48.072;11.682;2023-01-19T00:22:05;18.77;;;11.70;;
21472;SDS011;10898;48.072;11.682;2023-01-19T00:24:08;16.08;;;10.45;;
21472;SDS011;10898;48.072;11.682;2023-01-19T00:26:14;19.75;;;11.60;;
21472;SDS011;10898;48.072;11.682;2023-01-19T00:28:17;18.10;;;11.60;;
21472;SDS011;10898;48.072;11.682;2023-01-19T00:30:20;18.95;;;10.88;;
21472;SDS011;10898;48.072;11.682;2023-01-19T00:32:22;20.48;;;11.98;;
21472;SDS011;10898;48.072;11.682;2023-01-19T00:34:24;16.95;;;11.63;;
21472;SDS011;10898;48.072;11.682;2023-01-19T00:36:26;21.48;;;12.20;;
21472;SDS011;10898;48.072;11.682;2023-01-19T00:38:28;18.45;;;12.15;;
21472;SDS011;10898;48.072;11.682;2023-01-19T00:40:31;16.63;;;11.02;;
21472;SDS011;10898;48.072;11.682;2023-01-19T00:42:33;17.95;;;11.95;;
21472;SDS011;10898;48.072;11.682;2023-01-19T00:44:41;21.20;;;12.57;;
21472;SDS011;10898;48.072;11.682;2023-01-19T00:46:43;22.20;;;12.80;;
21472;SDS011;10898;48.072;11.682;2023-01-19T00:48:46;17.85;;;12.02;;
21472;SDS011;10898;48.072;11.682;2023-01-19T00:50:48;17.63;;;11.63;;
21472;SDS011;10898;48.072;11.682;2023-01-19T00:52:51;23.45;;;13.88;;
21472;SDS011;10898;48.072;11.682;2023-01-19T00:54:53;19.02;;;13.02;;
21472;SDS011;10898;48.072;11.682;2023-01-19T00:56:55;19.35;;;12.95;;
21472;SDS011;10898;48.072;11.682;2023-01-19T00:58:58;18.65;;;12.88;;
21472;SDS011;10898;48.072;11.682;2023-01-19T01:01:00;21.33;;;13.02;;
21472;SDS011;10898;48.072;11.682;2023-01-19T01:03:05;16.08;;;11.43;;
21472;SDS011;10898;48.072;11.682;2023-01-19T01:07:12;18.08;;;11.75;;
21472;SDS011;10898;48.072;11.682;2023-01-19T01:09:14;21.10;;;12.68;;
21472;SDS011;10898;48.072;11.682;2023-01-19T01:11:16;19.92;;;13.20;;
21472;SDS011;10898;48.072;11.682;2023-01-19T01:13:18;18.42;;;12.05;;
21472;SDS011;10898;48.072;11.682;2023-01-19T01:15:24;18.45;;;11.80;;
21472;SDS011;10898;48.072;11.682;2023-01-19T01:17:27;20.63;;;12.27;;
21472;SDS011;10898;48.072;11.682;2023-01-19T01:19:29;17.85;;;12.63;;
21472;SDS011;10898;48.072;11.682;2023-01-19T01:21:31;18.55;;;12.93;;
21472;SDS011;10898;48.072;11.682;2023-01-19T01:23:34;19.50;;;12.55;;
21472;SDS011;10898;48.072;11.682;2023-01-19T01:25:37;20.48;;;11.80;;
21472;SDS011;10898;48.072;11.682;2023-01-19T01:27:39;17.40;;;11.57;;
21472;SDS011;10898;48.072;11.682;2023-01-19T01:29:42;20.05;;;12.85;;
21472;SDS011;10898;48.072;11.682;2023-01-19T01:31:46;16.70;;;12.23;;
21472;SDS011;10898;48.072;11.682;2023-01-19T01:33:48;23.75;;;13.80;;
21472;SDS011;10898;48.072;11.682;2023-01-19T01:35:51;18.27;;;12.77;;
21472;SDS011;10898;48.072;11.682;2023-01-19T01:37:56;14.93;;;11.27;;
21472;SDS011;10898;48.072;11.682;2023-01-19T01:39:59;19.55;;;11.75;;
21472;SDS011;10898;48.072;11.682;2023-01-19T01:42:01;19.77;;;12.38;;
21472;SDS011;10898;48.072;11.682;2023-01-19T01:44:41;17.30;;;12.18;;
21472;SDS011;10898;48.072;11.682;2023-01-19T01:46:28;17.15;;;11.85;;
21472;SDS011;10898;48.072;11.682;2023-01-19T01:48:30;16.50;;;10.73;;
21472;SDS011;10898;48.072;11.682;2023-01-19T01:50:34;16.23;;;11.18;;
21472;SDS011;10898;48.072;11.682;2023-01-19T01:52:39;14.60;;;9.80;;
21472;SDS011;10898;48.072;11.682;2023-01-19T01:55:04;15.60;;;10.73;;
21472;SDS011;10898;48.072;11.682;2023-01-19T01:57:07;18.83;;;11.18;;
21472;SDS011;10898;48.072;11.682;2023-01-19T01:59:16;15.70;;;11.20;;
21472;SDS011;10898;48.072;11.682;2023-01-19T02:01:26;15.32;;;10.75;;
21472;SDS011;10898;48.072;11.682;2023-01-19T02:03:47;16.92;;;11.27;;
21472;SDS011;10898;48.072;11.682;2023-01-19T02:05:49;18.00;;;11.20;;
21472;SDS011;10898;48.072;11.682;2023-01-19T02:10:12;22.33;;;11.57;;
21472;SDS011;10898;48.072;11.682;2023-01-19T02:12:33;15.98;;;11.40;;
21472;SDS011;10898;48.072;11.682;2023-01-19T02:14:54;19.90;;;11.00;;
21472;SDS011;10898;48.072;11.682;2023-01-19T02:16:56;15.93;;;11.68;;
21472;SDS011;10898;48.072;11.682;2023-01-19T02:18:58;17.27;;;11.80;;
21472;SDS011;10898;48.072;11.682;2023-01-19T02:21:16;15.80;;;11.18;;
21472;SDS011;10898;48.072;11.682;2023-01-19T02:23:26;17.02;;;11.23;;
21472;SDS011;10898;48.072;11.682;2023-01-19T02:25:32;14.07;;;10.88;;
21472;SDS011;10898;48.072;11.682;2023-01-19T02:27:34;17.77;;;11.40;;
21472;SDS011;10898;48.072;11.682;2023-01-19T02:29:37;16.73;;;11.15;;
21472;SDS011;10898;48.072;11.682;2023-01-19T02:33:42;15.98;;;10.55;;
21472;SDS011;10898;48.072;11.682;2023-01-19T02:35:44;18.88;;;10.90;;
21472;SDS011;10898;48.072;11.682;2023-01-19T02:37:47;18.70;;;10.63;;
21472;SDS011;10898;48.072;11.682;2023-01-19T02:39:56;16.00;;;11.25;;
21472;SDS011;10898;48.072;11.682;2023-01-19T02:42:01;17.35;;;11.02;;
21472;SDS011;10898;48.072;11.682;2023-01-19T02:44:04;18.40;;;10.60;;
21472;SDS011;10898;48.072;11.682;2023-01-19T02:46:07;16.45;;;9.55;;
21472;SDS011;10898;48.072;11.682;2023-01-19T02:48:09;17.40;;;10.05;;
21472;SDS011;10898;48.072;11.682;2023-01-19T02:52:32;14.70;;;8.82;;
21472;SDS011;10898;48.072;11.682;2023-01-19T02:54:36;14.25;;;8.60;;
21472;SDS011;10898;48.072;11.682;2023-01-19T02:58:53;12.80;;;8.60;;
21472;SDS011;10898;48.072;11.682;2023-01-19T03:07:22;11.38;;;8.05;;
21472;SDS011;10898;48.072;11.682;2023-01-19T03:09:42;8.90;;;7.35;;
21472;SDS011;10898;48.072;11.682;2023-01-19T03:11:51;12.07;;;6.80;;
21472;SDS011;10898;48.072;11.682;2023-01-19T03:14:02;14.05;;;7.10;;
21472;SDS011;10898;48.072;11.682;2023-01-19T03:18:24;8.95;;;6.55;;
21472;SDS011;10898;48.072;11.682;2023-01-19T03:20:27;11.93;;;7.13;;
21472;SDS011;10898;48.072;11.682;2023-01-19T03:22:29;11.45;;;7.05;;
21472;SDS011;10898;48.072;11.682;2023-01-19T03:24:36;11.43;;;7.63;;
21472;SDS011;10898;48.072;11.682;2023-01-19T03:26:41;12.45;;;7.30;;
21472;SDS011;10898;48.072;11.682;2023-01-19T03:28:44;14.27;;;7.53;;
21472;SDS011;10898;48.072;11.682;2023-01-19T03:30:51;8.70;;;6.88;;
21472;SDS011;10898;48.072;11.682;2023-01-19T03:32:57;11.07;;;6.57;;
21472;SDS011;10898;48.072;11.682;2023-01-19T03:35:01;9.23;;;6.50;;
21472;SDS011;10898;48.072;11.682;2023-01-19T03:37:05;8.27;;;5.88;;
21472;SDS011;10898;48.072;11.682;2023-01-19T03:39:08;12.45;;;6.93;;
21472;SDS011;10898;48.072;11.682;2023-01-19T03:41:12;9.27;;;6.38;;
21472;SDS011;10898;48.072;11.682;2023-01-19T03:43:16;12.23;;;6.65;;
21472;SDS011;10898;48.072;11.682;2023-01-19T03:45:19;11.43;;;6.50;;
21472;SDS011;10898;48.072;11.682;2023-01-19T03:47:22;8.48;;;6.30;;
21472;SDS011;10898;48.072;11.682;2023-01-19T03:49:26;9.23;;;6.28;;
21472;SDS011;10898;48.072;11.682;2023-01-19T03:51:33;11.27;;;6.43;;
21472;SDS011;10898;48.072;11.682;2023-01-19T03:53:36;9.10;;;6.65;;
21472;SDS011;10898;48.072;11.682;2023-01-19T03:55:39;9.15;;;7.18;;
21472;SDS011;10898;48.072;11.682;2023-01-19T03:57:42;11.90;;;7.85;;
21472;SDS011;10898;48.072;11.682;2023-01-19T03:59:44;10.68;;;7.55;;
21472;SDS011;10898;48.072;11.682;2023-01-19T04:01:46;9.63;;;7.32;;
21472;SDS011;10898;48.072;11.682;2023-01-19T04:03:49;13.70;;;7.82;;
21472;SDS011;10898;48.072;11.682;2023-01-19T04:05:52;14.45;;;8.27;;
21472;SDS011;10898;48.072;11.682;2023-01-19T04:07:54;12.50;;;7.72;;
21472;SDS011;10898;48.072;11.682;2023-01-19T04:09:56;14.93;;;8.93;;
21472;SDS011;10898;48.072;11.682;2023-01-19T04:11:58;10.85;;;8.65;;
21472;SDS011;10898;48.072;11.682;2023-01-19T04:14:02;13.77;;;8.45;;
21472;SDS011;10898;48.072;11.682;2023-01-19T04:18:07;12.20;;;8.98;;
21472;SDS011;10898;48.072;11.682;2023-01-19T04:20:09;12.55;;;8.85;;
21472;SDS011;10898;48.072;11.682;2023-01-19T04:22:12;14.13;;;8.88;;
21472;SDS011;10898;48.072;11.682;2023-01-19T04:24:14;14.23;;;9.52;;
21472;SDS011;10898;48.072;11.682;2023-01-19T04:26:16;15.38;;;9.70;;
21472;SDS011;10898;48.072;11.682;2023-01-19T04:28:18;11.38;;;9.10;;
21472;SDS011;10898;48.072;11.682;2023-01-19T04:30:20;13.20;;;8.77;;
21472;SDS011;10898;48.072;11.682;2023-01-19T04:32:22;11.88;;;8.75;;
21472;SDS011;10898;48.072;11.682;2023-01-19T04:34:25;14.82;;;10.15;;
21472;SDS011;10898;48.072;11.682;2023-01-19T04:36:27;10.90;;;9.48;;
21472;SDS011;10898;48.072;11.682;2023-01-19T04:38:29;13.98;;;9.32;;
21472;SDS011;10898;48.072;11.682;2023-01-19T04:40:31;15.02;;;10.02;;
21472;SDS011;10898;48.072;11.682;2023-01-19T04:42:33;13.00;;;9.38;;
21472;SDS011;10898;48.072;11.682;2023-01-19T04:44:35;15.60;;;9.75;;
21472;SDS011;10898;48.072;11.682;2023-01-19T04:46:38;16.50;;;10.88;;
21472;SDS011;10898;48.072;11.682;2023-01-19T04:48:40;13.82;;;9.52;;
21472;SDS011;10898;48.072;11.682;2023-01-19T04:50:42;15.23;;;10.65;;
21472;SDS011;10898;48.072;11.682;2023-01-19T04:52:44;16.33;;;10.10;;
21472;SDS011;10898;48.072;11.682;2023-01-19T04:54:47;15.25;;;10.60;;
21472;SDS011;10898;48.072;11.682;2023-01-19T04:56:49;15.68;;;11.30;;
21472;SDS011;10898;48.072;11.682;2023-01-19T04:58:51;14.25;;;9.63;;
21472;SDS011;10898;48.072;11.682;2023-01-19T05:00:53;12.88;;;10.85;;
21472;SDS011;10898;48.072;11.682;2023-01-19T05:02:56;14.07;;;10.13;;
21472;SDS011;10898;48.072;11.682;2023-01-19T05:07:00;16.58;;;10.63;;
21472;SDS011;10898;48.072;11.682;2023-01-19T05:09:02;14.15;;;10.25;;
21472;SDS011;10898;48.072;11.682;2023-01-19T05:11:05;16.05;;;10.90;;
21472;SDS011;10898;48.072;11.682;2023-01-19T05:13:07;13.85;;;10.07;;
21472;SDS011;10898;48.072;11.682;2023-01-19T05:15:09;14.80;;;10.90;;
21472;SDS011;10898;48.072;11.682;2023-01-19T05:17:11;16.90;;;10.98;;
21472;SDS011;10898;48.072;11.682;2023-01-19T05:19:14;17.75;;;10.10;;
21472;SDS011;10898;48.072;11.682;2023-01-19T05:21:16;15.18;;;10.98;;
21472;SDS011;10898;48.072;11.682;2023-01-19T05:23:18;11.25;;;10.05;;
21472;SDS011;10898;48.072;11.682;2023-01-19T05:27:22;16.83;;;10.50;;
21472;SDS011;10898;48.072;11.682;2023-01-19T05:29:25;15.13;;;11.90;;
21472;SDS011;10898;48.072;11.682;2023-01-19T05:31:27;17.33;;;11.82;;
21472;SDS011;10898;48.072;11.682;2023-01-19T05:33:29;15.57;;;10.85;;
21472;SDS011;10898;48.072;11.682;2023-01-19T05:35:31;16.85;;;11.43;;
21472;SDS011;10898;48.072;11.682;2023-01-19T05:37:36;17.30;;;11.43;;
21472;SDS011;10898;48.072;11.682;2023-01-19T05:39:39;16.95;;;11.52;;
21472;SDS011;10898;48.072;11.682;2023-01-19T05:41:41;15.63;;;11.45;;
21472;SDS011;10898;48.072;11.682;2023-01-19T05:43:45;18.25;;;13.00;;
21472;SDS011;10898;48.072;11.682;2023-01-19T05:45:47;20.15;;;12.20;;
21472;SDS011;10898;48.072;11.682;2023-01-19T05:47:49;17.10;;;12.70;;
21472;SDS011;10898;48.072;11.682;2023-01-19T05:49:52;23.05;;;12.80;;
21472;SDS011;10898;48.072;11.682;2023-01-19T05:51:54;20.60;;;12.43;;
21472;SDS011;10898;48.072;11.682;2023-01-19T05:53:56;19.10;;;12.77;;
21472;SDS011;10898;48.072;11.682;2023-01-19T05:56:02;15.90;;;12.45;;
21472;SDS011;10898;48.072;11.682;2023-01-19T05:58:05;19.85;;;13.18;;
21472;SDS011;10898;48.072;11.682;2023-01-19T06:00:07;15.68;;;12.13;;
21472;SDS011;10898;48.072;11.682;2023-01-19T06:02:10;17.48;;;12.10;;
21472;SDS011;10898;48.072;11.682;2023-01-19T06:04:12;17.83;;;12.52;;
21472;SDS011;10898;48.072;11.682;2023-01-19T06:06:14;17.23;;;11.93;;
21472;SDS011;10898;48.072;11.682;2023-01-19T06:08:17;17.10;;;12.45;;
21472;SDS011;10898;48.072;11.682;2023-01-19T06:10:19;21.20;;;12.68;;
21472;SDS011;10898;48.072;11.682;2023-01-19T06:12:21;18.83;;;13.13;;
21472;SDS011;10898;48.072;11.682;2023-01-19T06:16:26;18.83;;;12.35;;
21472;SDS011;10898;48.072;11.682;2023-01-19T06:18:28;23.98;;;12.98;;
21472;SDS011;10898;48.072;11.682;2023-01-19T06:20:30;20.63;;;13.13;;
21472;SDS011;10898;48.072;11.682;2023-01-19T06:22:33;18.63;;;12.10;;
21472;SDS011;10898;48.072;11.682;2023-01-19T06:24:35;17.80;;;13.20;;
21472;SDS011;10898;48.072;11.682;2023-01-19T06:26:37;19.60;;;13.32;;
21472;SDS011;10898;48.072;11.682;2023-01-19T06:28:39;18.30;;;12.73;;
21472;SDS011;10898;48.072;11.682;2023-01-19T06:30:41;22.05;;;12.90;;
21472;SDS011;10898;48.072;11.682;2023-01-19T06:32:44;17.70;;;13.43;;
21472;SDS011;10898;48.072;11.682;2023-01-19T06:36:48;17.27;;;11.93;;
21472;SDS011;10898;48.072;11.682;2023-01-19T06:38:51;22.15;;;12.95;;
21472;SDS011;10898;48.072;11.682;2023-01-19T06:40:54;23.45;;;13.95;;
21472;SDS011;10898;48.072;11.682;2023-01-19T06:43:02;20.05;;;13.13;;
21472;SDS011;10898;48.072;11.682;2023-01-19T06:45:05;19.38;;;14.48;;
21472;SDS011;10898;48.072;11.682;2023-01-19T06:49:16;21.05;;;13.63;;
21472;SDS011;10898;48.072;11.682;2023-01-19T06:51:18;20.02;;;14.52;;
21472;SDS011;10898;48.072;11.682;2023-01-19T06:53:20;20.67;;;14.07;;
21472;SDS011;10898;48.072;11.682;2023-01-19T06:55:22;20.77;;;13.88;;
21472;SDS011;10898;48.072;11.682;2023-01-19T06:57:28;21.23;;;14.02;;
21472;SDS011;10898;48.072;11.682;2023-01-19T06:59:30;22.58;;;15.02;;
21472;SDS011;10898;48.072;11.682;2023-01-19T07:01:32;21.50;;;13.68;;
21472;SDS011;10898;48.072;11.682;2023-01-19T07:03:34;20.77;;;13.70;;
21472;SDS011;10898;48.072;11.682;2023-01-19T07:05:38;18.48;;;13.52;;
21472;SDS011;10898;48.072;11.682;2023-01-19T07:07:40;17.42;;;13.32;;
21472;SDS011;10898;48.072;11.682;2023-01-19T07:09:43;16.63;;;12.90;;
21472;SDS011;10898;48.072;11.682;2023-01-19T07:11:45;19.70;;;12.98;;
21472;SDS011;10898;48.072;11.682;2023-01-19T07:13:52;24.17;;;14.77;;
21472;SDS011;10898;48.072;11.682;2023-01-19T07:15:54;17.77;;;12.13;;
21472;SDS011;10898;48.072;11.682;2023-01-19T07:17:57;17.23;;;12.32;;
21472;SDS011;10898;48.072;11.682;2023-01-19T07:19:59;19.58;;;12.18;;
21472;SDS011;10898;48.072;11.682;2023-01-19T07:22:01;18.63;;;12.93;;
21472;SDS011;10898;48.072;11.682;2023-01-19T07:24:04;16.40;;;11.88;;
21472;SDS011;10898;48.072;11.682;2023-01-19T07:26:06;17.45;;;11.48;;
21472;SDS011;10898;48.072;11.682;2023-01-19T07:28:08;18.20;;;12.23;;
21472;SDS011;10898;48.072;11.682;2023-01-19T07:30:11;16.60;;;12.55;;
21472;SDS011;10898;48.072;11.682;2023-01-19T07:32:16;18.13;;;12.35;;
21472;SDS011;10898;48.072;11.682;2023-01-19T07:34:18;18.52;;;12.68;;
21472;SDS011;10898;48.072;11.682;2023-01-19T07:36:21;15.98;;;11.48;;
21472;SDS011;10898;48.072;11.682;2023-01-19T07:38:23;17.48;;;11.15;;
21472;SDS011;10898;48.072;11.682;2023-01-19T07:40:25;22.05;;;12.27;;
21472;SDS011;10898;48.072;11.682;2023-01-19T07:42:28;16.50;;;10.77;;
21472;SDS011;10898;48.072;11.682;2023-01-19T07:44:30;20.17;;;11.63;;
21472;SDS011;10898;48.072;11.682;2023-01-19T07:46:32;16.20;;;12.30;;
21472;SDS011;10898;48.072;11.682;2023-01-19T07:48:34;15.70;;;11.35;;
21472;SDS011;10898;48.072;11.682;2023-01-19T07:50:37;17.48;;;12.35;;
21472;SDS011;10898;48.072;11.682;2023-01-19T07:52:39;17.55;;;12.30;;
21472;SDS011;10898;48.072;11.682;2023-01-19T07:54:41;18.10;;;12.13;;
21472;SDS011;10898;48.072;11.682;2023-01-19T07:56:43;20.00;;;12.52;;
21472;SDS011;10898;48.072;11.682;2023-01-19T07:58:45;19.02;;;12.82;;
21472;SDS011;10898;48.072;11.682;2023-01-19T08:00:49;14.85;;;11.68;;
21472;SDS011;10898;48.072;11.682;2023-01-19T08:02:52;17.77;;;12.63;;
21472;SDS011;10898;48.072;11.682;2023-01-19T08:05:00;14.82;;;11.65;;
21472;SDS011;10898;48.072;11.682;2023-01-19T08:07:03;15.18;;;11.55;;
21472;SDS011;10898;48.072;11.682;2023-01-19T08:09:05;15.48;;;11.88;;
21472;SDS011;10898;48.072;11.682;2023-01-19T08:11:07;15.25;;;11.05;;
21472;SDS011;10898;48.072;11.682;2023-01-19T08:13:09;15.32;;;11.77;;
21472;SDS011;10898;48.072;11.682;2023-01-19T08:15:11;16.85;;;12.25;;
21472;SDS011;10898;48.072;11.682;2023-01-19T08:17:14;21.40;;;11.98;;
21472;SDS011;10898;48.072;11.682;2023-01-19T08:21:19;17.40;;;12.52;;
21472;SDS011;10898;48.072;11.682;2023-01-19T08:23:21;16.73;;;12.23;;
21472;SDS011;10898;48.072;11.682;2023-01-19T08:25:24;18.42;;;11.98;;
21472;SDS011;10898;48.072;11.682;2023-01-19T08:27:27;16.52;;;11.27;;
21472;SDS011;10898;48.072;11.682;2023-01-19T08:29:30;18.42;;;12.13;;
21472;SDS011;10898;48.072;11.682;2023-01-19T08:31:33;17.63;;;11.85;;
21472;SDS011;10898;48.072;11.682;2023-01-19T08:33:36;14.70;;;11.40;;
21472;SDS011;10898;48.072;11.682;2023-01-19T08:35:39;15.27;;;11.63;;
21472;SDS011;10898;48.072;11.682;2023-01-19T08:37:42;14.48;;;11.15;;
21472;SDS011;10898;48.072;11.682;2023-01-19T08:39:44;16.88;;;11.02;;
21472;SDS011;10898;48.072;11.682;2023-01-19T08:41:46;18.25;;;12.23;;
21472;SDS011;10898;48.072;11.682;2023-01-19T08:43:48;17.05;;;11.27;;
21472;SDS011;10898;48.072;11.682;2023-01-19T08:45:51;15.73;;;11.50;;
21472;SDS011;10898;48.072;11.682;2023-01-19T08:47:54;19.48;;;12.90;;
21472;SDS011;10898;48.072;11.682;2023-01-19T08:49:57;15.45;;;11.82;;
21472;SDS011;10898;48.072;11.682;2023-01-19T08:51:59;20.30;;;13.35;;
21472;SDS011;10898;48.072;11.682;2023-01-19T08:54:03;16.92;;;11.20;;
21472;SDS011;10898;48.072;11.682;2023-01-19T08:58:12;19.00;;;11.88;;
21472;SDS011;10898;48.072;11.682;2023-01-19T09:00:14;14.77;;;10.68;;
21472;SDS011;10898;48.072;11.682;2023-01-19T09:02:17;15.63;;;10.98;;
21472;SDS011;10898;48.072;11.682;2023-01-19T09:04:19;17.73;;;10.55;;
21472;SDS011;10898;48.072;11.682;2023-01-19T09:06:21;15.45;;;9.85;;
21472;SDS011;10898;48.072;11.682;2023-01-19T09:08:25;14.27;;;9.60;;
21472;SDS011;10898;48.072;11.682;2023-01-19T09:10:27;13.70;;;9.50;;
21472;SDS011;10898;48.072;11.682;2023-01-19T09:12:31;16.38;;;10.15;;
21472;SDS011;10898;48.072;11.682;2023-01-19T09:14:33;12.75;;;9.65;;
21472;SDS011;10898;48.072;11.682;2023-01-19T09:16:36;12.90;;;9.13;;
21472;SDS011;10898;48.072;11.682;2023-01-19T09:18:38;19.73;;;10.27;;
21472;SDS011;10898;48.072;11.682;2023-01-19T09:20:41;15.40;;;9.75;;
21472;SDS011;10898;48.072;11.682;2023-01-19T09:22:43;11.30;;;9.45;;
21472;SDS011;10898;48.072;11.682;2023-01-19T09:24:45;12.65;;;9.32;;
21472;SDS011;10898;48.072;11.682;2023-01-19T09:26:47;13.55;;;9.52;;
21472;SDS011;10898;48.072;11.682;2023-01-19T09:28:49;15.23;;;9.65;;
21472;SDS011;10898;48.072;11.682;2023-01-19T09:30:52;12.55;;;9.75;;
21472;SDS011;10898;48.072;11.682;2023-01-19T09:32:54;14.23;;;10.10;;
21472;SDS011;10898;48.072;11.682;2023-01-19T09:34:59;15.38;;;9.55;;
21472;SDS011;10898;48.072;11.682;2023-01-19T09:37:01;13.77;;;10.02;;
21472;SDS011;10898;48.072;11.682;2023-01-19T09:39:04;13.90;;;9.82;;
21472;SDS011;10898;48.072;11.682;2023-01-19T09:45:14;13.52;;;9.27;;
21472;SDS011;10898;48.072;11.682;2023-01-19T09:47:19;13.20;;;9.48;;
21472;SDS011;10898;48.072;11.682;2023-01-19T09:49:27;13.10;;;8.18;;
21472;SDS011;10898;48.072;11.682;2023-01-19T09:51:34;12.32;;;9.15;;
21472;SDS011;10898;48.072;11.682;2023-01-19T09:55:50;13.00;;;9.10;;
21472;SDS011;10898;48.072;11.682;2023-01-19T09:57:53;14.07;;;8.75;;
21472;SDS011;10898;48.072;11.682;2023-01-19T10:02:03;11.93;;;8.48;;
21472;SDS011;10898;48.072;11.682;2023-01-19T10:04:27;13.90;;;8.73;;
21472;SDS011;10898;48.072;11.682;2023-01-19T10:06:30;11.27;;;8.57;;
21472;SDS011;10898;48.072;11.682;2023-01-19T10:08:51;10.55;;;8.27;;
21472;SDS011;10898;48.072;11.682;2023-01-19T10:10:56;11.85;;;8.10;;
21472;SDS011;10898;48.072;11.682;2023-01-19T10:17:19;10.85;;;8.38;;
21472;SDS011;10898;48.072;11.682;2023-01-19T10:19:34;11.50;;;8.38;;
21472;SDS011;10898;48.072;11.682;2023-01-19T10:21:39;14.50;;;8.82;;
21472;SDS011;10898;48.072;11.682;2023-01-19T10:25:49;11.57;;;8.50;;
21472;SDS011;10898;48.072;11.682;2023-01-19T10:29:54;13.90;;;8.43;;
21472;SDS011;10898;48.072;11.682;2023-01-19T10:32:07;11.50;;;7.93;;
21472;SDS011;10898;48.072;11.682;2023-01-19T10:34:10;10.98;;;7.70;;
21472;SDS011;10898;48.072;11.682;2023-01-19T10:36:26;11.70;;;8.05;;
21472;SDS011;10898;48.072;11.682;2023-01-19T10:38:29;9.52;;;7.22;;
21472;SDS011;10898;48.072;11.682;2023-01-19T10:40:45;9.68;;;7.38;;
21472;SDS011;10898;48.072;11.682;2023-01-19T10:42:49;9.70;;;6.68;;
21472;SDS011;10898;48.072;11.682;2023-01-19T10:44:51;11.63;;;7.68;;
21472;SDS011;10898;48.072;11.682;2023-01-19T10:46:54;10.40;;;7.28;;
21472;SDS011;10898;48.072;11.682;2023-01-19T10:48:57;10.40;;;7.20;;
21472;SDS011;10898;48.072;11.682;2023-01-19T10:51:02;12.90;;;7.63;;
21472;SDS011;10898;48.072;11.682;2023-01-19T10:53:05;9.73;;;7.07;;
21472;SDS011;10898;48.072;11.682;2023-01-19T10:55:28;8.50;;;6.40;;
21472;SDS011;10898;48.072;11.682;2023-01-19T10:57:32;10.48;;;7.35;;
21472;SDS011;10898;48.072;11.682;2023-01-19T11:01:39;9.27;;;7.32;;
21472;SDS011;10898;48.072;11.682;2023-01-19T11:03:42;9.10;;;6.78;;
21472;SDS011;10898;48.072;11.682;2023-01-19T11:05:44;8.52;;;6.45;;
21472;SDS011;10898;48.072;11.682;2023-01-19T11:07:46;11.35;;;7.40;;
21472;SDS011;10898;48.072;11.682;2023-01-19T11:09:49;9.95;;;6.80;;
21472;SDS011;10898;48.072;11.682;2023-01-19T11:12:14;8.98;;;6.38;;
21472;SDS011;10898;48.072;11.682;2023-01-19T11:14:21;9.60;;;6.53;;
21472;SDS011;10898;48.072;11.682;2023-01-19T11:16:24;8.52;;;6.75;;
21472;SDS011;10898;48.072;11.682;2023-01-19T11:18:37;10.07;;;6.60;;
21472;SDS011;10898;48.072;11.682;2023-01-19T11:22:44;8.02;;;7.22;;
21472;SDS011;10898;48.072;11.682;2023-01-19T11:24:48;8.55;;;6.80;;
21472;SDS011;10898;48.072;11.682;2023-01-19T11:26:53;10.82;;;6.93;;
21472;SDS011;10898;48.072;11.682;2023-01-19T11:29:03;8.70;;;7.15;;
21472;SDS011;10898;48.072;11.682;2023-01-19T11:33:09;9.68;;;7.57;;
21472;SDS011;10898;48.072;11.682;2023-01-19T11:35:34;10.10;;;7.93;;
21472;SDS011;10898;48.072;11.682;2023-01-19T11:37:36;10.77;;;8.30;;
21472;SDS011;10898;48.072;11.682;2023-01-19T11:39:48;9.88;;;7.60;;
21472;SDS011;10898;48.072;11.682;2023-01-19T11:41:52;10.27;;;7.55;;
21472;SDS011;10898;48.072;11.682;2023-01-19T11:44:04;10.18;;;8.23;;
21472;SDS011;10898;48.072;11.682;2023-01-19T11:46:10;10.45;;;7.90;;
21472;SDS011;10898;48.072;11.682;2023-01-19T11:48:20;12.07;;;7.95;;
21472;SDS011;10898;48.072;11.682;2023-01-19T11:52:33;9.52;;;7.68;;
21472;SDS011;10898;48.072;11.682;2023-01-19T11:57:09;8.25;;;7.13;;
21472;SDS011;10898;48.072;11.682;2023-01-19T11:59:13;10.32;;;7.20;;
21472;SDS011;10898;48.072;11.682;2023-01-19T12:03:45;11.05;;;7.20;;
21472;SDS011;10898;48.072;11.682;2023-01-19T12:05:50;10.73;;;8.27;;
21472;SDS011;10898;48.072;11.682;2023-01-19T12:07:53;9.55;;;7.07;;
21472;SDS011;10898;48.072;11.682;2023-01-19T12:10:00;12.15;;;7.40;;
21472;SDS011;10898;48.072;11.682;2023-01-19T12:12:24;10.23;;;7.18;;
21472;SDS011;10898;48.072;11.682;2023-01-19T12:16:30;12.65;;;7.70;;
21472;SDS011;10898;48.072;11.682;2023-01-19T12:18:41;9.82;;;7.65;;
21472;SDS011;10898;48.072;11.682;2023-01-19T12:20:46;10.25;;;7.50;;
21472;SDS011;10898;48.072;11.682;2023-01-19T12:23:36;9.10;;;7.07;;
21472;SDS011;10898;48.072;11.682;2023-01-19T12:25:22;10.05;;;7.95;;
21472;SDS011;10898;48.072;11.682;2023-01-19T12:27:32;8.68;;;7.03;;
21472;SDS011;10898;48.072;11.682;2023-01-19T12:29:37;9.02;;;6.88;;
21472;SDS011;10898;48.072;11.682;2023-01-19T12:31:41;8.32;;;7.35;;
21472;SDS011;10898;48.072;11.682;2023-01-19T12:40:26;10.32;;;6.57;;
21472;SDS011;10898;48.072;11.682;2023-01-19T12:42:29;10.90;;;6.65;;
21472;SDS011;10898;48.072;11.682;2023-01-19T12:44:31;8.90;;;6.90;;
21472;SDS011;10898;48.072;11.682;2023-01-19T12:46:35;9.00;;;6.55;;
21472;SDS011;10898;48.072;11.682;2023-01-19T12:48:38;8.00;;;6.35;;
21472;SDS011;10898;48.072;11.682;2023-01-19T12:50:41;9.25;;;6.78;;
21472;SDS011;10898;48.072;11.682;2023-01-19T12:52:47;8.50;;;6.20;;
21472;SDS011;10898;48.072;11.682;2023-01-19T12:57:07;4.93;;;4.45;;
21472;SDS011;10898;48.072;11.682;2023-01-19T12:59:23;3.42;;;2.85;;
21472;SDS011;10898;48.072;11.682;2023-01-19T13:01:26;3.40;;;2.40;;
21472;SDS011;10898;48.072;11.682;2023-01-19T13:09:54;4.72;;;2.90;;
21472;SDS011;10898;48.072;11.682;2023-01-19T13:18:22;2.30;;;2.10;;
21472;SDS011;10898;48.072;11.682;2023-01-19T13:20:26;2.50;;;2.30;;
21472;SDS011;10898;48.072;11.682;2023-01-19T13:25:06;2.53;;;2.33;;
21472;SDS011;10898;48.072;11.682;2023-01-19T13:27:09;6.18;;;2.72;;
21472;SDS011;10898;48.072;11.682;2023-01-19T13:29:13;6.70;;;3.53;;
21472;SDS011;10898;48.072;11.682;2023-01-19T13:31:16;4.63;;;3.42;;
21472;SDS011;10898;48.072;11.682;2023-01-19T13:33:20;6.43;;;3.80;;
21472;SDS011;10898;48.072;11.682;2023-01-19T13:35:23;4.30;;;3.90;;
21472;SDS011;10898;48.072;11.682;2023-01-19T13:37:32;4.15;;;3.55;;